Clearwater, Louisiana
Current Conditions -  °F | °C
As of 3:53 PM on Sunday 21 Dec 2014 (Local Time) from KESF Reporting Station
Clear Clear  
Wind Chill: 54°   Ceiling: Unl
Heat Index: 54°   Visibility: 10mi
Dew Point: 47°   Wind: 6mph
Humidity: 77%   Direction: 170°S
Pressure: 29.99"   Gusts: NA
Location:  31.0364°N, 92.3015°W
Report Text: KESF 212153Z AUTO 17005KT 10SM CLR 12/08 A2999 RMK AO2 SLP154 T01220083
Loading
Personal Weather Stations






























Interactive Weather Map New forecast layout! Learn more

10-Day Weather Forecast

Advertisements
Track Severe Weather on mobile